Time;durP1;ratioP1;P1;durP2;ratioP2;P2;SDS_P1;SDS_P2;PMS_P1;PMS_P2;Temp;Humidity;BMP_temperature;BMP_pressure;BME280_temperature;BME280_humidity;BME280_pressure;Samples;Min_cycle;Max_cycle;Signal;HPM_P1;HPM_P2
2022/09/18 00:01:30;;;;;;;;;;;;;;;2.93;72.12;95365.78;5092663;28;20520;-69
2022/09/18 00:03:56;;;;;;;;;;;;;;;3.14;70.18;95363.00;5103214;28;20533;-69
2022/09/18 00:06:22;;;;;;;;;;;;;;;2.71;72.54;95372.94;5104192;28;20081;-69
2022/09/18 00:08:51;;;;;;;;;;;;;;;2.86;72.21;95368.09;5103512;28;20201;-69
2022/09/18 00:11:16;;;;;;;;;;;;;;;2.46;73.38;95368.97;5086777;28;20202;-69
2022/09/18 00:13:41;;;;;;;;;;;;;;;2.53;73.82;95365.66;5090907;28;20028;-69
2022/09/18 00:16:07;;;;;;;;;;;;;;;2.24;74.41;95365.56;5088067;28;20344;-69
2022/09/18 00:18:32;;;;;;;;;;;;;;;2.49;73.71;95355.56;5102888;28;19984;-69
2022/09/18 00:21:05;;;;;;;;;;;;;;;2.60;73.43;95359.88;5092476;28;20253;-69
2022/09/18 00:23:30;;;;;;;;;;;;;;;2.77;73.05;95355.78;5103052;28;20055;-70
2022/09/18 00:25:55;;;;;;;;;;;;;;;2.38;74.29;95357.34;5102581;28;20121;-69
2022/09/18 00:28:20;;;;;;;;;;;;;;;2.71;73.45;95364.19;5102995;28;20038;-69
2022/09/18 00:30:46;;;;;;;;;;;;;;;2.29;74.32;95347.63;5088471;28;19960;-69
2022/09/18 00:33:12;;;;;;;;;;;;;;;2.29;74.85;95347.63;5101992;28;20319;-70
2022/09/18 00:35:40;;;;;;;;;;;;;;;2.68;73.72;95346.09;5103549;28;20276;-70
2022/09/18 00:38:05;;;;;;;;;;;;;;;2.72;73.22;95352.72;5103199;28;19994;-70
2022/09/18 00:40:31;;;;;;;;;;;;;;;2.87;72.68;95354.00;5103262;28;20237;-70
2022/09/18 00:42:57;;;;;;;;;;;;;;;2.59;73.80;95359.03;5101830;28;20390;-69
2022/09/18 00:45:23;;;;;;;;;;;;;;;2.75;73.81;95363.81;5103727;28;20014;-70
2022/09/18 00:47:48;;;;;;;;;;;;;;;2.74;73.97;95359.50;5088609;28;19992;-70
2022/09/18 00:50:15;;;;;;;;;;;;;;;3.43;71.25;95345.56;5103163;28;19996;-70
2022/09/18 00:53:00;;;;;;;;;;;;;;;2.99;71.99;95359.16;5103168;28;19988;-70
2022/09/18 00:55:33;;;;;;;;;;;;;;;2.90;72.52;95361.59;5102654;28;20038;-69
2022/09/18 00:57:59;;;;;;;;;;;;;;;2.72;73.09;95358.81;5091534;28;19998;-69
2022/09/18 01:00:24;;;;;;;;;;;;;;;2.70;73.74;95362.53;5088704;28;20051;-70
2022/09/18 01:02:50;;;;;;;;;;;;;;;2.62;74.54;95360.59;5103183;28;19968;-70
2022/09/18 01:05:16;;;;;;;;;;;;;;;3.04;72.65;95364.81;5092362;28;20023;-70
2022/09/18 01:08:07;;;;;;;;;;;;;;;2.57;74.50;95366.25;5091556;28;20286;-70
2022/09/18 01:10:51;;;;;;;;;;;;;;;2.78;74.40;95360.91;5088069;28;20257;-70
2022/09/18 01:13:20;;;;;;;;;;;;;;;3.55;70.69;95357.63;5102299;28;19991;-70
2022/09/18 01:16:00;;;;;;;;;;;;;;;3.17;71.85;95354.03;5100380;28;19986;-70
2022/09/18 01:18:28;;;;;;;;;;;;;;;3.25;71.44;95353.34;5099524;28;20368;-70
2022/09/18 01:20:59;;;;;;;;;;;;;;;3.53;70.15;95348.22;5100564;28;20027;-70
2022/09/18 01:23:43;;;;;;;;;;;;;;;2.82;72.58;95369.34;5101697;28;19970;-70
2022/09/18 01:26:08;;;;;;;;;;;;;;;3.38;71.17;95351.25;5101757;28;20000;-70
2022/09/18 01:28:54;;;;;;;;;;;;;;;3.87;69.47;95344.28;5101805;28;20503;-70
2022/09/18 01:31:20;;;;;;;;;;;;;;;3.67;69.72;95357.47;5050066;28;19964;-70
2022/09/18 01:33:55;;;;;;;;;;;;;;;3.87;68.68;95347.75;5084958;28;20092;-70
2022/09/18 01:36:20;;;;;;;;;;;;;;;3.77;69.05;95347.78;5100658;28;20046;-70
2022/09/18 01:39:12;;;;;;;;;;;;;;;3.46;70.20;95357.63;5085614;28;20012;-70
2022/09/18 01:41:37;;;;;;;;;;;;;;;3.24;71.22;95355.16;5097709;28;20019;-70
2022/09/18 01:44:04;;;;;;;;;;;;;;;3.33;71.33;95356.09;5085003;28;20367;-70
2022/09/18 01:46:29;;;;;;;;;;;;;;;3.28;71.68;95346.00;5085597;28;19988;-70
2022/09/18 01:48:55;;;;;;;;;;;;;;;3.91;70.13;95349.13;5090136;28;19992;-70
2022/09/18 01:51:21;;;;;;;;;;;;;;;3.71;70.45;95348.31;5094017;28;20288;-70
2022/09/18 01:53:48;;;;;;;;;;;;;;;3.22;71.55;95348.34;5102542;28;19992;-70
2022/09/18 01:56:18;;;;;;;;;;;;;;;3.43;71.31;95343.78;5069206;28;20085;-70
2022/09/18 01:58:43;;;;;;;;;;;;;;;3.67;71.22;95355.69;5087041;28;19995;-70
2022/09/18 02:01:11;;;;;;;;;;;;;;;4.02;69.31;95337.56;5101716;28;20352;-70
2022/09/18 02:03:41;;;;;;;;;;;;;;;4.14;69.43;95342.66;5086611;28;19964;-70
2022/09/18 02:06:14;;;;;;;;;;;;;;;4.32;68.53;95343.56;5102129;28;19996;-70
2022/09/18 02:08:49;;;;;;;;;;;;;;;4.15;68.84;95347.00;5102547;28;20045;-70
2022/09/18 02:11:15;;;;;;;;;;;;;;;3.99;69.60;95339.69;5102508;28;19971;-70
2022/09/18 02:14:07;;;;;;;;;;;;;;;4.20;68.76;95352.66;5085442;28;19999;-70
2022/09/18 02:16:41;;;;;;;;;;;;;;;4.34;68.75;95343.44;5096450;28;20472;-70
2022/09/18 02:19:08;;;;;;;;;;;;;;;3.82;69.33;95347.34;5102062;28;19966;-70
2022/09/18 02:21:34;;;;;;;;;;;;;;;3.74;70.28;95342.78;5087428;28;20082;-70
2022/09/18 02:24:02;;;;;;;;;;;;;;;3.26;71.09;95333.94;5091371;28;19968;-70
2022/09/18 02:26:27;;;;;;;;;;;;;;;3.08;72.68;95342.53;5087325;28;20559;-70
2022/09/18 02:28:52;;;;;;;;;;;;;;;3.19;72.88;95341.56;5084935;28;19996;-70
2022/09/18 02:31:18;;;;;;;;;;;;;;;3.13;73.67;95329.78;5102037;28;20008;-70
2022/09/18 02:33:43;;;;;;;;;;;;;;;2.82;74.67;95335.16;5101884;28;19999;-70
2022/09/18 02:36:17;;;;;;;;;;;;;;;2.76;74.82;95338.34;5100324;28;20002;-70
2022/09/18 02:38:46;;;;;;;;;;;;;;;2.98;74.83;95325.91;5101570;28;20455;-70
2022/09/18 02:41:15;;;;;;;;;;;;;;;2.74;75.58;95329.75;5101450;28;20075;-70
2022/09/18 02:43:49;;;;;;;;;;;;;;;2.29;76.97;95342.38;5102100;28;19979;-70
2022/09/18 02:46:21;;;;;;;;;;;;;;;2.37;77.92;95339.91;5101189;28;20412;-70
2022/09/18 02:48:56;;;;;;;;;;;;;;;2.35;76.78;95341.00;5086531;28;20107;-69
2022/09/18 02:51:26;;;;;;;;;;;;;;;2.73;76.03;95346.50;5099596;28;20096;-70
2022/09/18 02:54:18;;;;;;;;;;;;;;;2.31;77.60;95324.66;5084048;28;19988;-70
2022/09/18 02:56:51;;;;;;;;;;;;;;;2.71;76.78;95332.66;5093793;28;19994;-70
2022/09/18 02:59:21;;;;;;;;;;;;;;;2.74;76.30;95345.53;5093626;28;19972;-70
2022/09/18 03:01:46;;;;;;;;;;;;;;;2.65;77.10;95332.22;5093803;28;20038;-70
2022/09/18 03:04:13;;;;;;;;;;;;;;;2.49;76.96;95334.56;5101392;28;20419;-71
2022/09/18 03:06:38;;;;;;;;;;;;;;;2.51;77.29;95324.72;5091124;28;19988;-70
2022/09/18 03:09:03;;;;;;;;;;;;;;;2.46;77.25;95319.03;5100766;28;20041;-70
2022/09/18 03:11:28;;;;;;;;;;;;;;;2.58;77.03;95322.41;5101599;28;19975;-70
2022/09/18 03:13:53;;;;;;;;;;;;;;;2.74;76.44;95313.97;5101156;28;19984;-69
2022/09/18 03:16:19;;;;;;;;;;;;;;;2.68;76.40;95312.72;5101768;28;19972;-70
2022/09/18 03:18:44;;;;;;;;;;;;;;;2.55;77.03;95310.34;5100820;28;20664;-70
2022/09/18 03:21:09;;;;;;;;;;;;;;;2.31;78.33;95310.72;5100209;28;19996;-70
2022/09/18 03:23:34;;;;;;;;;;;;;;;2.71;77.27;95309.81;5101703;28;19968;-70
2022/09/18 03:26:00;;;;;;;;;;;;;;;2.42;77.92;95315.03;5100981;28;20053;-70
2022/09/18 03:28:25;;;;;;;;;;;;;;;2.56;77.23;95327.78;5101087;28;19996;-70
2022/09/18 03:30:50;;;;;;;;;;;;;;;2.44;77.94;95308.66;5098172;28;19969;-70
2022/09/18 03:33:16;;;;;;;;;;;;;;;2.46;77.08;95316.41;5101347;28;20415;-70
2022/09/18 03:35:42;;;;;;;;;;;;;;;2.33;78.32;95314.88;5092339;28;19976;-70
2022/09/18 03:38:07;;;;;;;;;;;;;;;2.45;77.50;95325.28;5092970;28;19995;-70
2022/09/18 03:40:32;;;;;;;;;;;;;;;2.47;77.79;95316.28;5101223;28;20226;-70
2022/09/18 03:42:57;;;;;;;;;;;;;;;2.37;77.84;95316.25;5101138;28;20028;-70
2022/09/18 03:45:23;;;;;;;;;;;;;;;2.20;78.24;95306.38;5086914;28;20263;-70
2022/09/18 03:47:48;;;;;;;;;;;;;;;2.09;78.72;95318.66;5099583;28;20089;-69
2022/09/18 03:50:13;;;;;;;;;;;;;;;2.15;78.44;95325.19;5100087;28;19996;-69
2022/09/18 03:52:39;;;;;;;;;;;;;;;2.32;77.96;95328.13;5100693;28;20012;-69
2022/09/18 03:55:04;;;;;;;;;;;;;;;1.88;79.42;95342.34;5100754;28;19979;-69
2022/09/18 03:57:29;;;;;;;;;;;;;;;2.14;79.19;95331.38;5099264;28;19987;-69
2022/09/18 03:59:55;;;;;;;;;;;;;;;2.30;78.36;95316.91;5100709;28;19980;-69
2022/09/18 04:02:20;;;;;;;;;;;;;;;2.43;77.16;95327.19;5084267;28;20011;-69
2022/09/18 04:04:45;;;;;;;;;;;;;;;2.44;77.78;95328.84;5100646;28;19998;-69
2022/09/18 04:07:10;;;;;;;;;;;;;;;2.12;79.74;95335.94;5101522;28;20424;-68
2022/09/18 04:09:36;;;;;;;;;;;;;;;2.62;78.12;95329.88;5097693;28;20348;-69
2022/09/18 04:12:01;;;;;;;;;;;;;;;2.55;77.56;95320.84;5103737;28;19982;-69
2022/09/18 04:14:26;;;;;;;;;;;;;;;2.51;78.54;95317.69;5104751;28;19996;-69
2022/09/18 04:16:51;;;;;;;;;;;;;;;2.42;78.65;95328.16;5103977;28;20017;-69
2022/09/18 04:19:17;;;;;;;;;;;;;;;2.60;77.79;95330.97;5104616;28;20007;-69
2022/09/18 04:21:42;;;;;;;;;;;;;;;2.22;78.60;95325.47;5103779;28;20003;-69
2022/09/18 04:24:07;;;;;;;;;;;;;;;2.84;77.15;95330.59;5103596;28;20199;-69
2022/09/18 04:26:35;;;;;;;;;;;;;;;2.05;78.92;95335.66;5103563;28;19999;-68
2022/09/18 04:29:01;;;;;;;;;;;;;;;2.23;78.81;95335.00;5103770;28;20003;-69
2022/09/18 04:31:26;;;;;;;;;;;;;;;2.69;77.31;95332.78;5093307;28;20379;-69
2022/09/18 04:33:51;;;;;;;;;;;;;;;2.35;78.40;95339.19;5103475;28;19984;-69
2022/09/18 04:36:16;;;;;;;;;;;;;;;2.31;78.41;95323.84;5103529;28;19976;-69
2022/09/18 04:38:41;;;;;;;;;;;;;;;2.32;78.60;95328.97;5104490;28;20310;-68
2022/09/18 04:41:07;;;;;;;;;;;;;;;2.42;77.46;95346.56;5103838;28;20513;-68
2022/09/18 04:43:32;;;;;;;;;;;;;;;2.46;77.75;95327.78;5104101;28;20344;-68
2022/09/18 04:45:57;;;;;;;;;;;;;;;2.42;78.25;95320.28;5087157;28;20000;-68
2022/09/18 04:48:23;;;;;;;;;;;;;;;2.59;77.57;95318.81;5102859;28;20486;-69
2022/09/18 04:50:48;;;;;;;;;;;;;;;2.72;76.80;95315.94;5083434;28;19968;-69
2022/09/18 04:53:13;;;;;;;;;;;;;;;2.29;78.31;95326.63;5102016;28;20027;-69
2022/09/18 04:55:38;;;;;;;;;;;;;;;2.30;78.94;95316.91;5086907;28;19978;-69
2022/09/18 04:58:04;;;;;;;;;;;;;;;2.43;78.49;95320.16;5103395;28;20440;-68
2022/09/18 05:00:29;;;;;;;;;;;;;;;2.33;78.46;95325.38;5103048;28;20486;-68
2022/09/18 05:02:54;;;;;;;;;;;;;;;1.94;80.25;95322.59;5103901;28;20264;-69
2022/09/18 05:05:20;;;;;;;;;;;;;;;1.83;80.53;95319.09;5103172;28;20499;-68
2022/09/18 05:07:45;;;;;;;;;;;;;;;1.72;81.08;95320.00;5103713;28;20409;-69
2022/09/18 05:10:10;;;;;;;;;;;;;;;1.97;81.27;95317.06;5102504;28;20004;-68
2022/09/18 05:12:38;;;;;;;;;;;;;;;1.97;80.97;95327.56;5101799;28;19972;-68
2022/09/18 05:15:03;;;;;;;;;;;;;;;1.78;81.77;95326.53;5086407;28;20017;-69
2022/09/18 05:17:29;;;;;;;;;;;;;;;2.07;80.39;95338.97;5101117;28;20026;-69
2022/09/18 05:19:55;;;;;;;;;;;;;;;1.92;80.08;95316.63;5101926;28;19972;-69
2022/09/18 05:22:20;;;;;;;;;;;;;;;1.92;80.49;95335.00;5103095;28;20537;-68
2022/09/18 05:24:45;;;;;;;;;;;;;;;2.08;80.24;95329.28;5102294;28;20368;-68
2022/09/18 05:27:10;;;;;;;;;;;;;;;1.91;80.90;95338.63;5103035;28;20063;-69
2022/09/18 05:29:36;;;;;;;;;;;;;;;1.88;81.21;95322.13;5100262;28;20036;-69
2022/09/18 05:32:01;;;;;;;;;;;;;;;2.34;78.36;95334.06;5102913;28;20428;-69
2022/09/18 05:34:27;;;;;;;;;;;;;;;2.50;77.60;95320.44;5103133;28;19992;-69
2022/09/18 05:36:52;;;;;;;;;;;;;;;3.18;76.12;95332.00;5102655;28;19992;-69
2022/09/18 05:39:17;;;;;;;;;;;;;;;2.29;78.47;95328.41;5103197;28;19976;-68
2022/09/18 05:41:42;;;;;;;;;;;;;;;2.32;79.06;95328.97;5085949;28;19996;-69
2022/09/18 05:44:08;;;;;;;;;;;;;;;2.82;77.03;95324.63;5103005;28;20001;-69
2022/09/18 05:46:33;;;;;;;;;;;;;;;2.57;77.48;95336.50;5102277;28;20392;-69
2022/09/18 05:48:58;;;;;;;;;;;;;;;2.57;77.24;95321.56;5101525;28;20032;-69
2022/09/18 05:51:24;;;;;;;;;;;;;;;2.19;79.13;95328.38;5100395;28;19979;-70
2022/09/18 05:53:49;;;;;;;;;;;;;;;2.12;80.12;95323.63;5102383;28;20086;-69
2022/09/18 05:56:15;;;;;;;;;;;;;;;2.42;79.18;95322.91;5102821;28;20010;-69
2022/09/18 05:58:40;;;;;;;;;;;;;;;2.00;80.57;95327.31;5085464;28;19991;-69
2022/09/18 06:01:05;;;;;;;;;;;;;;;2.28;79.92;95319.66;5101503;28;19984;-70
2022/09/18 06:03:31;;;;;;;;;;;;;;;2.42;79.56;95330.78;5102360;28;20218;-69
2022/09/18 06:05:56;;;;;;;;;;;;;;;2.43;79.01;95327.19;5089294;28;19998;-70
2022/09/18 06:08:21;;;;;;;;;;;;;;;2.82;77.70;95352.75;5102145;28;20495;-70
2022/09/18 06:10:47;;;;;;;;;;;;;;;2.50;79.30;95344.09;5096087;28;19975;-70
2022/09/18 06:13:14;;;;;;;;;;;;;;;2.82;77.48;95344.88;5102002;28;19993;-70
2022/09/18 06:15:40;;;;;;;;;;;;;;;2.72;78.08;95342.22;5081797;28;20000;-70
2022/09/18 06:18:05;;;;;;;;;;;;;;;2.84;78.21;95345.53;5101982;28;20027;-70
2022/09/18 06:20:31;;;;;;;;;;;;;;;2.60;78.36;95350.22;5099532;28;19972;-71
2022/09/18 06:22:59;;;;;;;;;;;;;;;2.86;77.96;95333.91;5100013;28;20015;-70
2022/09/18 06:25:25;;;;;;;;;;;;;;;3.10;76.58;95340.56;5091254;28;20426;-70
2022/09/18 06:27:57;;;;;;;;;;;;;;;3.10;76.86;95335.31;5101855;28;20074;-70
2022/09/18 06:30:23;;;;;;;;;;;;;;;3.36;76.04;95341.81;5099608;28;20491;-70
2022/09/18 06:32:48;;;;;;;;;;;;;;;3.38;75.83;95346.00;5087620;28;20041;-69
2022/09/18 06:35:13;;;;;;;;;;;;;;;3.20;75.23;95339.78;5101487;28;19976;-70
2022/09/18 06:37:38;;;;;;;;;;;;;;;2.55;77.53;95344.50;5101588;28;20431;-70
2022/09/18 06:40:04;;;;;;;;;;;;;;;2.42;78.29;95339.53;5102100;28;19976;-70
2022/09/18 06:42:29;;;;;;;;;;;;;;;2.85;77.13;95350.66;5101386;28;20208;-69
2022/09/18 06:44:54;;;;;;;;;;;;;;;2.76;76.82;95351.50;5101175;28;20070;-70
2022/09/18 06:47:19;;;;;;;;;;;;;;;2.60;77.29;95347.59;5101593;28;20554;-70
2022/09/18 06:49:45;;;;;;;;;;;;;;;2.75;76.82;95353.28;5100123;28;20043;-70
2022/09/18 06:52:12;;;;;;;;;;;;;;;2.81;76.67;95346.66;5098616;28;20288;-71
2022/09/18 06:54:37;;;;;;;;;;;;;;;3.12;75.75;95349.19;5101370;28;19992;-70
2022/09/18 06:57:02;;;;;;;;;;;;;;;3.08;75.77;95358.31;5100675;27;20000;-71
2022/09/18 06:59:28;;;;;;;;;;;;;;;2.91;76.27;95352.78;5101250;28;20041;-71
2022/09/18 07:01:53;;;;;;;;;;;;;;;3.55;73.65;95354.19;5100428;28;20131;-71
2022/09/18 07:04:18;;;;;;;;;;;;;;;3.10;76.06;95345.84;5101612;28;20109;-71
2022/09/18 07:06:44;;;;;;;;;;;;;;;3.06;75.34;95348.91;5101158;28;19999;-71
2022/09/18 07:09:10;;;;;;;;;;;;;;;2.90;75.81;95339.75;5100534;28;20000;-70
2022/09/18 07:11:35;;;;;;;;;;;;;;;2.85;76.30;95331.41;5101442;28;19964;-70
2022/09/18 07:14:00;;;;;;;;;;;;;;;2.89;76.30;95340.69;5100537;28;19994;-70
2022/09/18 07:16:26;;;;;;;;;;;;;;;2.93;75.89;95339.50;5100290;28;20029;-71
2022/09/18 07:18:52;;;;;;;;;;;;;;;3.14;75.46;95344.59;5100757;28;19967;-70
2022/09/18 07:21:18;;;;;;;;;;;;;;;3.62;73.23;95336.88;5100665;28;20007;-71
2022/09/18 07:23:43;;;;;;;;;;;;;;;3.63;73.15;95349.03;5100994;28;19976;-70
2022/09/18 07:26:08;;;;;;;;;;;;;;;3.59;73.66;95349.47;5098767;28;20474;-71
2022/09/18 07:28:33;;;;;;;;;;;;;;;3.43;74.44;95346.41;5096555;28;19991;-71
2022/09/18 07:31:02;;;;;;;;;;;;;;;2.74;76.69;95348.16;5099537;28;20417;-70
2022/09/18 07:33:27;;;;;;;;;;;;;;;2.71;77.25;95345.78;5100004;28;19995;-71
2022/09/18 07:35:54;;;;;;;;;;;;;;;2.76;77.65;95344.41;5101000;28;19994;-70
2022/09/18 07:38:19;;;;;;;;;;;;;;;3.03;77.23;95340.31;5099742;28;19992;-70
2022/09/18 07:40:44;;;;;;;;;;;;;;;3.22;76.86;95338.66;5100839;28;20040;-70
2022/09/18 07:43:10;;;;;;;;;;;;;;;2.79;78.25;95343.31;5105158;28;20069;-70
2022/09/18 07:45:35;;;;;;;;;;;;;;;2.54;79.88;95340.22;5087928;28;20214;-70
2022/09/18 07:48:01;;;;;;;;;;;;;;;2.96;78.50;95338.38;5102975;28;20000;-70
2022/09/18 07:50:26;;;;;;;;;;;;;;;3.03;78.30;95340.31;5089018;28;19996;-70
2022/09/18 07:52:52;;;;;;;;;;;;;;;3.23;77.52;95345.56;5104284;28;20639;-70
2022/09/18 07:55:19;;;;;;;;;;;;;;;2.93;79.12;95347.38;5092122;28;20062;-70
2022/09/18 07:57:45;;;;;;;;;;;;;;;2.65;80.20;95353.25;5101453;28;20040;-69
2022/09/18 08:00:10;;;;;;;;;;;;;;;2.99;79.62;95338.09;5104375;28;20010;-70
2022/09/18 08:02:36;;;;;;;;;;;;;;;2.99;77.91;95333.66;5103057;28;20467;-70
2022/09/18 08:05:01;;;;;;;;;;;;;;;2.76;79.68;95348.88;5103500;28;20424;-69
2022/09/18 08:07:26;;;;;;;;;;;;;;;3.00;78.90;95340.56;5104953;28;20465;-69
2022/09/18 08:09:51;;;;;;;;;;;;;;;3.25;78.20;95345.44;5104104;28;19996;-70
2022/09/18 08:12:17;;;;;;;;;;;;;;;3.16;77.53;95344.47;5104384;28;19980;-70
2022/09/18 08:14:42;;;;;;;;;;;;;;;3.18;77.70;95339.91;5103584;28;19984;-70
2022/09/18 08:17:07;;;;;;;;;;;;;;;2.94;78.74;95346.41;5103002;28;19988;-69
2022/09/18 08:19:33;;;;;;;;;;;;;;;2.96;78.73;95346.28;5104383;28;20051;-69
2022/09/18 08:21:58;;;;;;;;;;;;;;;2.48;80.98;95348.63;5103440;28;20410;-69
2022/09/18 08:24:23;;;;;;;;;;;;;;;2.38;81.09;95359.97;5103726;28;20050;-70
2022/09/18 08:26:48;;;;;;;;;;;;;;;3.14;79.03;95351.69;5104626;28;19968;-70
2022/09/18 08:29:17;;;;;;;;;;;;;;;3.67;76.82;95345.16;5102547;28;20004;-70
2022/09/18 08:31:43;;;;;;;;;;;;;;;3.76;76.03;95350.53;5087802;28;19976;-70
2022/09/18 08:34:08;;;;;;;;;;;;;;;3.21;77.64;95342.25;5103987;28;20725;-70
2022/09/18 08:36:34;;;;;;;;;;;;;;;3.72;76.40;95334.22;5103455;28;20396;-71
2022/09/18 08:38:59;;;;;;;;;;;;;;;3.99;75.22;95334.41;5104502;28;20479;-70
2022/09/18 08:41:44;;;;;;;;;;;;;;;3.50;77.39;95348.53;5103707;28;20067;-69
2022/09/18 08:44:17;;;;;;;;;;;;;;;3.35;77.49;95351.53;5082995;28;19980;-69
2022/09/18 08:46:44;;;;;;;;;;;;;;;3.23;78.49;95337.69;5102717;28;19988;-69
2022/09/18 08:49:12;;;;;;;;;;;;;;;3.09;78.99;95335.47;5087722;28;19996;-69
2022/09/18 08:51:53;;;;;;;;;;;;;;;3.12;78.44;95341.28;5086494;28;20013;-70
2022/09/18 08:54:26;;;;;;;;;;;;;;;2.77;81.07;95350.53;5103041;28;19998;-70
2022/09/18 08:56:51;;;;;;;;;;;;;;;2.41;81.81;95352.78;5103283;28;20023;-69
2022/09/18 08:59:20;;;;;;;;;;;;;;;2.80;81.47;95339.75;5090747;28;20864;-70
2022/09/18 09:01:50;;;;;;;;;;;;;;;2.94;80.33;95337.66;5102544;28;19988;-69
2022/09/18 09:04:27;;;;;;;;;;;;;;;2.46;81.43;95343.53;5104052;28;20058;-69
2022/09/18 09:06:52;;;;;;;;;;;;;;;2.87;81.17;95335.59;5083707;28;20136;-69
2022/09/18 09:09:33;;;;;;;;;;;;;;;3.46;79.20;95339.22;5102704;28;20526;-69
2022/09/18 09:12:13;;;;;;;;;;;;;;;2.51;82.00;95336.06;5103556;28;20024;-69
2022/09/18 09:14:44;;;;;;;;;;;;;;;3.01;80.40;95344.03;5103008;28;20022;-69
2022/09/18 09:17:18;;;;;;;;;;;;;;;2.49;81.38;95348.50;5103153;28;19995;-63
2022/09/18 09:19:53;;;;;;;;;;;;;;;2.34;82.53;95340.16;5087473;28;19977;-68
2022/09/18 09:22:24;;;;;;;;;;;;;;;2.69;80.86;95339.84;5102410;28;20086;-69
2022/09/18 09:24:53;;;;;;;;;;;;;;;2.76;79.91;95333.09;5086919;28;20038;-69
2022/09/18 09:27:25;;;;;;;;;;;;;;;2.61;81.07;95330.84;5100212;28;20062;-69
2022/09/18 09:29:55;;;;;;;;;;;;;;;2.63;80.62;95331.53;5101729;28;20375;-69
2022/09/18 09:32:28;;;;;;;;;;;;;;;2.55;81.33;95341.88;5092038;28;20428;-70
2022/09/18 09:34:54;;;;;;;;;;;;;;;2.46;81.18;95325.16;5088096;28;19988;-69
2022/09/18 09:37:22;;;;;;;;;;;;;;;2.23;82.60;95348.16;5092921;28;20583;-69
2022/09/18 09:39:53;;;;;;;;;;;;;;;2.08;83.61;95332.72;5067863;28;19991;-68
2022/09/18 09:42:20;;;;;;;;;;;;;;;1.88;84.51;95344.97;5102150;27;20432;-68
2022/09/18 09:44:53;;;;;;;;;;;;;;;2.25;83.46;95341.78;5091340;28;20471;-69
2022/09/18 09:47:27;;;;;;;;;;;;;;;2.07;84.57;95354.72;5102350;28;20003;-69
2022/09/18 09:49:58;;;;;;;;;;;;;;;2.24;84.28;95352.44;5087663;28;20002;-68
2022/09/18 09:52:24;;;;;;;;;;;;;;;2.38;83.77;95340.72;5102192;28;20515;-68
2022/09/18 09:54:53;;;;;;;;;;;;;;;2.47;82.29;95345.19;5102098;28;19964;-69
2022/09/18 09:57:30;;;;;;;;;;;;;;;2.30;82.77;95338.78;5095055;28;20000;-68
2022/09/18 09:59:56;;;;;;;;;;;;;;;2.25;83.80;95346.22;5102446;28;20647;-68
2022/09/18 10:02:24;;;;;;;;;;;;;;;2.41;83.70;95335.22;5089076;28;20081;-68
2022/09/18 10:04:52;;;;;;;;;;;;;;;2.35;83.78;95357.59;5098624;28;20444;-68
2022/09/18 10:07:17;;;;;;;;;;;;;;;2.61;82.00;95330.84;5086352;28;19972;-68
2022/09/18 10:09:53;;;;;;;;;;;;;;;3.20;80.10;95332.69;5100625;28;20003;-68
2022/09/18 10:12:27;;;;;;;;;;;;;;;3.05;80.26;95327.03;5091702;28;20603;-68
2022/09/18 10:14:53;;;;;;;;;;;;;;;2.83;81.15;95339.47;5094118;28;19972;-69
2022/09/18 10:17:19;;;;;;;;;;;;;;;2.81;80.61;95328.25;5100354;28;19994;-69
2022/09/18 10:19:44;;;;;;;;;;;;;;;3.05;80.65;95324.38;5084508;28;20392;-68
2022/09/18 10:22:10;;;;;;;;;;;;;;;3.08;81.07;95332.00;5072331;28;19984;-69
2022/09/18 10:24:47;;;;;;;;;;;;;;;2.84;81.45;95325.34;5088682;28;20045;-69
2022/09/18 10:27:13;;;;;;;;;;;;;;;2.80;81.18;95339.75;5082195;28;20431;-68
2022/09/18 10:29:38;;;;;;;;;;;;;;;2.93;81.10;95334.22;5085478;28;20030;-68
2022/09/18 10:32:05;;;;;;;;;;;;;;;2.76;81.73;95333.09;5102063;28;19964;-69
2022/09/18 10:34:47;;;;;;;;;;;;;;;3.08;80.65;95329.38;5099516;28;20087;-69
2022/09/18 10:37:28;;;;;;;;;;;;;;;3.06;80.33;95344.47;5100948;28;20002;-68
2022/09/18 10:39:58;;;;;;;;;;;;;;;2.86;81.48;95333.09;5099046;28;20685;-68
2022/09/18 10:42:24;;;;;;;;;;;;;;;3.15;81.56;95330.50;5099793;28;19995;-68
2022/09/18 10:44:52;;;;;;;;;;;;;;;3.03;80.66;95328.97;5095346;28;19983;-68
2022/09/18 10:47:22;;;;;;;;;;;;;;;2.73;81.88;95333.34;5094986;28;20251;-68
2022/09/18 10:49:53;;;;;;;;;;;;;;;2.68;81.73;95338.19;5082409;28;19996;-68
2022/09/18 10:52:20;;;;;;;;;;;;;;;3.09;81.49;95325.78;5101151;28;19968;-69
2022/09/18 10:54:58;;;;;;;;;;;;;;;3.17;81.69;95318.00;5084124;28;19979;-69
2022/09/18 10:57:27;;;;;;;;;;;;;;;3.22;79.45;95320.25;5085474;28;19988;-70
2022/09/18 10:59:52;;;;;;;;;;;;;;;3.35;79.91;95312.06;5067451;28;19995;-70
2022/09/18 11:02:19;;;;;;;;;;;;;;;3.80;77.96;95307.16;5097802;28;19992;-70
2022/09/18 11:04:47;;;;;;;;;;;;;;;4.14;76.37;95306.63;5083137;28;20035;-70
2022/09/18 11:07:12;;;;;;;;;;;;;;;3.48;77.82;95309.19;5083172;28;20442;-70
2022/09/18 11:09:38;;;;;;;;;;;;;;;3.39;78.67;95309.97;5103310;28;20035;-76
2022/09/18 11:12:03;;;;;;;;;;;;;;;2.75;80.58;95332.25;5097951;28;19968;-75
2022/09/18 11:14:38;;;;;;;;;;;;;;;2.66;81.49;95312.03;5109083;28;19995;-75
2022/09/18 11:17:03;;;;;;;;;;;;;;;3.01;80.84;95315.13;5087838;28;20001;-77
2022/09/18 11:19:32;;;;;;;;;;;;;;;2.70;81.59;95337.09;5096361;28;19972;-76
2022/09/18 11:21:59;;;;;;;;;;;;;;;2.80;80.99;95305.56;5097039;28;19992;-74
2022/09/18 11:24:30;;;;;;;;;;;;;;;3.14;79.54;95297.25;5102834;28;19964;-76
2022/09/18 11:26:59;;;;;;;;;;;;;;;3.29;79.21;95302.09;5098141;28;20479;-76
2022/09/18 11:29:31;;;;;;;;;;;;;;;2.99;79.94;95283.69;5093785;28;19996;-75
2022/09/18 11:32:15;;;;;;;;;;;;;;;2.49;82.32;95300.38;5085386;28;19990;-74
2022/09/18 11:35:04;;;;;;;;;;;;;;;2.59;82.30;95295.16;5119733;28;20402;-74
2022/09/18 11:37:31;;;;;;;;;;;;;;;3.19;80.15;95294.19;5102440;28;20013;-76
2022/09/18 11:40:01;;;;;;;;;;;;;;;2.86;80.62;95302.38;5100120;28;19975;-76
2022/09/18 11:42:26;;;;;;;;;;;;;;;2.38;82.16;95296.06;5100526;28;19992;-75
2022/09/18 11:44:51;;;;;;;;;;;;;;;2.32;82.63;95304.50;5118946;28;20004;-74
2022/09/18 11:47:17;;;;;;;;;;;;;;;2.47;82.36;95304.94;5097840;28;20228;-74
2022/09/18 11:49:54;;;;;;;;;;;;;;;2.22;82.39;95315.78;5118387;28;19983;-74
2022/09/18 11:52:21;;;;;;;;;;;;;;;2.09;83.06;95305.53;5098823;28;20474;-74
2022/09/18 11:55:01;;;;;;;;;;;;;;;2.24;83.47;95298.09;5099928;28;19992;-76
2022/09/18 11:57:29;;;;;;;;;;;;;;;1.99;84.03;95315.16;5086253;28;19991;-74
2022/09/18 12:00:04;;;;;;;;;;;;;;;2.18;83.86;95309.13;5082065;28;20572;-76
2022/09/18 12:02:59;;;;;;;;;;;;;;;2.26;83.52;95338.22;5117964;27;20082;-76
2022/09/18 12:05:29;;;;;;;;;;;;;;;2.21;83.94;95323.81;5084175;28;20500;-75
2022/09/18 12:08:00;;;;;;;;;;;;;;;2.17;83.65;95322.44;5113670;28;20519;-66
2022/09/18 12:10:52;;;;;;;;;;;;;;;1.92;84.90;95298.25;5102699;28;20000;-67
2022/09/18 12:13:17;;;;;;;;;;;;;;;1.77;85.95;95282.03;5099850;28;20444;-66
2022/09/18 12:15:44;;;;;;;;;;;;;;;1.87;85.66;95312.59;5104651;28;19968;-66
2022/09/18 12:18:12;;;;;;;;;;;;;;;1.35;87.77;95302.91;5088605;28;19994;-65
2022/09/18 12:20:40;;;;;;;;;;;;;;;1.61;87.03;95304.34;5091402;28;20651;-67
2022/09/18 12:23:08;;;;;;;;;;;;;;;1.78;86.59;95304.69;5104382;28;20080;-65
2022/09/18 12:25:40;;;;;;;;;;;;;;;2.07;85.98;95290.84;5095672;28;19992;-64
2022/09/18 12:28:24;;;;;;;;;;;;;;;1.99;85.80;95286.25;5102455;28;19970;-64
2022/09/18 12:30:52;;;;;;;;;;;;;;;1.84;85.54;95293.69;5103869;28;19996;-64
2022/09/18 12:33:35;;;;;;;;;;;;;;;1.73;86.33;95284.06;5089920;28;20034;-65
2022/09/18 12:36:19;;;;;;;;;;;;;;;1.54;87.44;95290.91;5104220;28;19968;-65
2022/09/18 12:39:03;;;;;;;;;;;;;;;1.75;87.32;95287.41;5103776;28;19999;-66
2022/09/18 12:41:32;;;;;;;;;;;;;;;1.60;86.16;95290.38;5104181;28;20440;-65
2022/09/18 12:44:15;;;;;;;;;;;;;;;1.63;87.21;95305.00;5086771;28;19971;-64
2022/09/18 12:46:44;;;;;;;;;;;;;;;1.70;87.25;95279.91;5103828;28;20454;-66
2022/09/18 12:49:27;;;;;;;;;;;;;;;1.89;86.16;95283.59;5095633;28;20140;-65
2022/09/18 12:51:56;;;;;;;;;;;;;;;1.87;86.56;95299.47;5104201;28;20421;-66
2022/09/18 12:54:36;;;;;;;;;;;;;;;1.81;86.94;95284.25;5086519;28;19992;-65
2022/09/18 12:57:20;;;;;;;;;;;;;;;2.00;85.58;95282.66;5103386;28;20033;-67
2022/09/18 12:59:49;;;;;;;;;;;;;;;2.23;85.58;95269.34;5103872;28;19972;-66
2022/09/18 13:02:14;;;;;;;;;;;;;;;2.27;84.82;95278.63;5103584;28;19988;-63
2022/09/18 13:04:44;;;;;;;;;;;;;;;1.78;86.96;95281.06;5103533;28;20297;-66